Barnsbury, United Kingdom
Current Conditions -  °F | °C
As of 10:50 AM on Sunday 23 Nov 2014 (Local Time) from EGLC Reporting Station
Moderate Rain Moderate Rain  
Wind Chill: 45°   Ceiling: 3000
Heat Index: 48°   Visibility: 6mi
Dew Point: 46°   Wind: 7mph
Humidity: 93%   Direction: 340°NNW
Pressure: 30"   Gusts: NA
Location:  51.54°N, 0.12°W
Report Text: EGLC 231050Z AUTO 34006KT 300V020 9999 RA FEW009/// BKN030/// 09/08 Q1016
Loading
Personal Weather Stations






























Interactive Weather Map New forecast layout! Learn more

10-Day Weather Forecast

Advertisements
Track Severe Weather on mobile